createdAt,value
2018-12-09T00:00:40.628Z,93.66
2018-12-09T00:03:10.544Z,94.77
2018-12-09T00:05:39.982Z,95.74
2018-12-09T00:08:10.193Z,95.87
2018-12-09T00:10:42.107Z,96.23
2018-12-09T00:13:14.325Z,95.18
2018-12-09T00:15:46.497Z,94.52
2018-12-09T00:18:21.063Z,92.03
2018-12-09T00:20:53.711Z,90.09
2018-12-09T00:23:27.380Z,89.04
2018-12-09T00:25:59.601Z,89.99
2018-12-09T00:28:32.663Z,89.76
2018-12-09T00:31:05.316Z,89.42
2018-12-09T00:33:37.975Z,90.55
2018-12-09T00:36:10.552Z,90.23
2018-12-09T00:38:44.080Z,90.65
2018-12-09T00:41:16.268Z,91.12
2018-12-09T00:43:45.948Z,91.77
2018-12-09T00:46:18.540Z,92.41
2018-12-09T00:48:51.741Z,93.09
2018-12-09T00:51:23.799Z,92.61
2018-12-09T00:53:55.874Z,93.51
2018-12-09T00:56:30.516Z,93.55
2018-12-09T00:59:03.043Z,93.18
2018-12-09T01:01:35.179Z,93.41
2018-12-09T01:04:07.373Z,94.07
2018-12-09T01:06:39.870Z,94.76
2018-12-09T01:09:12.090Z,94.40
2018-12-09T01:11:44.239Z,94.14
2018-12-09T01:14:16.321Z,93.40
2018-12-09T01:16:48.436Z,92.45
2018-12-09T01:19:21.066Z,92.26
2018-12-09T01:21:53.705Z,92.13
2018-12-09T01:24:26.354Z,92.04
2018-12-09T01:26:59.914Z,92.07
2018-12-09T01:29:34.021Z,91.05
2018-12-09T01:32:07.049Z,91.14
2018-12-09T01:34:39.590Z,90.27
2018-12-09T01:37:10.160Z,90.26
2018-12-09T01:39:40.884Z,90.79
2018-12-09T01:42:13.209Z,91.34
2018-12-09T01:44:46.852Z,90.03
2018-12-09T01:47:19.306Z,88.68
2018-12-09T01:49:53.315Z,88.75
2018-12-09T01:52:26.562Z,89.07
2018-12-09T01:54:58.733Z,87.96
2018-12-09T01:57:31.917Z,87.67
2018-12-09T02:00:06.670Z,86.79
2018-12-09T02:02:39.378Z,86.62
2018-12-09T02:05:13.025Z,86.49
2018-12-09T02:07:45.642Z,87.14
2018-12-09T02:10:18.211Z,88.55
2018-12-09T02:12:51.301Z,91.70
2018-12-09T02:15:23.395Z,93.52
2018-12-09T02:17:55.995Z,96.08
2018-12-09T02:20:28.111Z,95.43
2018-12-09T02:23:00.664Z,97.11
2018-12-09T02:25:33.881Z,97.92
2018-12-09T02:28:06.873Z,98.70
2018-12-09T02:30:42.952Z,99.92
2018-12-09T02:33:17.136Z,98.73
2018-12-09T02:35:53.647Z,97.84
2018-12-09T02:38:25.742Z,99.58
2018-12-09T02:40:58.844Z,99.11
2018-12-09T02:43:36.009Z,100.00
2018-12-09T02:46:09.518Z,100.00
2018-12-09T02:48:42.582Z,100.00
2018-12-09T02:51:15.295Z,100.00
2018-12-09T02:53:48.609Z,100.00
2018-12-09T02:56:22.823Z,100.00
2018-12-09T02:58:55.632Z,100.00
2018-12-09T03:01:29.442Z,100.00
2018-12-09T03:04:02.180Z,100.00
2018-12-09T03:06:34.461Z,100.00
2018-12-09T03:09:11.131Z,100.00
2018-12-09T03:11:43.378Z,100.00
2018-12-09T03:14:16.050Z,100.00
2018-12-09T03:16:48.851Z,100.00
2018-12-09T03:19:21.300Z,100.00
2018-12-09T03:21:53.476Z,100.00
2018-12-09T03:24:26.550Z,100.00
2018-12-09T03:26:58.637Z,100.00
2018-12-09T03:29:30.745Z,100.00
2018-12-09T03:32:02.825Z,100.00
2018-12-09T03:34:35.901Z,100.00
2018-12-09T03:37:08.433Z,100.00
2018-12-09T03:39:40.951Z,100.00
2018-12-09T03:42:14.022Z,100.00
2018-12-09T03:44:47.131Z,100.00
2018-12-09T03:47:20.175Z,100.00
2018-12-09T03:49:52.269Z,100.00
2018-12-09T03:52:24.338Z,100.00
2018-12-09T03:54:56.932Z,100.00
2018-12-09T03:57:29.534Z,100.00
2018-12-09T04:00:02.565Z,100.00
2018-12-09T04:02:35.619Z,100.00
2018-12-09T04:05:08.131Z,100.00
2018-12-09T04:07:40.361Z,100.00
2018-12-09T04:10:12.953Z,100.00
2018-12-09T04:12:45.526Z,100.00
2018-12-09T04:15:18.729Z,100.00
2018-12-09T04:17:50.929Z,100.00
2018-12-09T04:20:23.170Z,100.00
2018-12-09T04:22:55.559Z,100.00
2018-12-09T04:25:28.266Z,100.00
2018-12-09T04:28:01.454Z,100.00
2018-12-09T04:30:34.408Z,100.00
2018-12-09T04:33:06.617Z,100.00
2018-12-09T04:35:38.830Z,100.00
2018-12-09T04:38:11.554Z,100.00
2018-12-09T04:40:45.799Z,100.00
2018-12-09T04:43:19.017Z,100.00
2018-12-09T04:45:53.277Z,100.00
2018-12-09T04:48:26.151Z,100.00
2018-12-09T04:50:58.505Z,100.00
2018-12-09T04:53:30.805Z,100.00
2018-12-09T04:56:03.827Z,100.00
2018-12-09T04:58:38.349Z,100.00
2018-12-09T05:01:10.626Z,100.00
2018-12-09T05:03:42.996Z,100.00
2018-12-09T05:06:16.591Z,100.00
2018-12-09T05:08:48.704Z,100.00
2018-12-09T05:11:20.887Z,100.00
2018-12-09T05:13:54.329Z,100.00
2018-12-09T05:16:26.450Z,100.00
2018-12-09T05:19:00.638Z,100.00
2018-12-09T05:21:33.596Z,100.00
2018-12-09T05:24:07.668Z,100.00
2018-12-09T05:26:40.713Z,100.00
2018-12-09T05:29:14.734Z,100.00
2018-12-09T05:31:48.253Z,100.00
2018-12-09T05:34:20.781Z,100.00
2018-12-09T05:36:53.810Z,100.00
2018-12-09T05:39:26.340Z,100.00
2018-12-09T05:41:58.869Z,100.00
2018-12-09T05:44:31.371Z,100.00
2018-12-09T05:47:04.369Z,100.00
2018-12-09T05:49:36.873Z,100.00
2018-12-09T05:52:09.383Z,100.00
2018-12-09T05:54:41.881Z,100.00
2018-12-09T05:57:15.887Z,100.00
2018-12-09T05:59:47.938Z,100.00
2018-12-09T06:02:30.022Z,100.00
2018-12-09T06:05:03.647Z,100.00
2018-12-09T06:07:35.769Z,100.00
2018-12-09T06:10:08.911Z,100.00
2018-12-09T06:12:44.058Z,100.00
2018-12-09T06:15:16.538Z,100.00
2018-12-09T06:17:49.739Z,100.00
2018-12-09T06:20:22.028Z,100.00
2018-12-09T06:22:54.234Z,100.00
2018-12-09T06:25:27.291Z,100.00
2018-12-09T06:28:00.345Z,100.00
2018-12-09T06:30:33.386Z,100.00
2018-12-09T06:33:05.892Z,100.00
2018-12-09T06:35:39.372Z,100.00
2018-12-09T06:38:12.373Z,100.00
2018-12-09T06:40:45.371Z,100.00
2018-12-09T06:43:17.939Z,100.00
2018-12-09T06:45:50.907Z,100.00
2018-12-09T06:48:23.910Z,100.00
2018-12-09T06:50:56.426Z,100.00
2018-12-09T06:53:29.506Z,100.00
2018-12-09T06:56:01.926Z,100.00
2018-12-09T06:58:34.438Z,100.00
2018-12-09T07:01:07.459Z,100.00
2018-12-09T07:03:39.962Z,100.00
2018-12-09T07:06:12.575Z,100.00
2018-12-09T07:08:44.973Z,100.00
2018-12-09T07:11:18.013Z,100.00
2018-12-09T07:13:51.058Z,100.00
2018-12-09T07:16:25.093Z,100.00
2018-12-09T07:18:58.701Z,100.00
2018-12-09T07:21:32.889Z,100.00
2018-12-09T07:24:05.511Z,100.00
2018-12-09T07:26:38.217Z,100.00
2018-12-09T07:29:10.798Z,100.00
2018-12-09T07:31:43.469Z,100.00
2018-12-09T07:34:15.655Z,100.00
2018-12-09T07:36:47.799Z,100.00
2018-12-09T07:39:20.021Z,100.00
2018-12-09T07:41:53.206Z,100.00
2018-12-09T07:44:45.159Z,100.00
2018-12-09T07:47:20.196Z,100.00
2018-12-09T07:49:53.829Z,100.00
2018-12-09T07:52:26.433Z,100.00
2018-12-09T07:54:58.501Z,100.00
2018-12-09T07:57:31.060Z,100.00
2018-12-09T08:00:04.081Z,100.00
2018-12-09T08:02:37.180Z,100.00
2018-12-09T08:05:09.791Z,99.63
2018-12-09T08:07:43.893Z,99.55
2018-12-09T08:13:25.838Z,98.92
2018-12-09T08:15:58.130Z,99.07
2018-12-09T08:18:30.351Z,99.71
2018-12-09T08:21:02.732Z,98.89
2018-12-09T08:23:34.940Z,97.91
2018-12-09T08:26:07.148Z,97.14
2018-12-09T08:28:39.858Z,97.43
2018-12-09T08:31:11.742Z,96.34
2018-12-09T08:33:44.105Z,97.33
2018-12-09T08:36:15.904Z,97.69
2018-12-09T08:39:03.455Z,96.41
2018-12-09T08:41:50.268Z,97.15
2018-12-09T08:44:38.963Z,95.97
2018-12-09T08:47:17.897Z,97.31
2018-12-09T08:49:50.458Z,95.23
2018-12-09T08:52:24.031Z,95.31
2018-12-09T08:54:56.169Z,94.27
2018-12-09T08:57:28.763Z,93.63
2018-12-09T09:00:02.381Z,92.90
2018-12-09T09:02:34.638Z,92.94
2018-12-09T09:05:06.686Z,94.19
2018-12-09T09:07:39.768Z,93.89
2018-12-09T09:10:12.401Z,94.47
2018-12-09T09:12:45.066Z,94.83
2018-12-09T09:15:17.203Z,95.36
2018-12-09T09:17:50.827Z,94.90
2018-12-09T09:20:23.217Z,94.67
2018-12-09T09:22:55.488Z,94.34
2018-12-09T09:25:28.760Z,96.02
2018-12-09T09:28:03.787Z,96.50
2018-12-09T09:30:36.017Z,95.44
2018-12-09T09:33:08.378Z,94.88
2018-12-09T09:35:38.716Z,95.07
2018-12-09T09:38:08.039Z,95.49
2018-12-09T09:40:37.595Z,94.51
2018-12-09T09:43:07.150Z,94.10
2018-12-09T09:45:38.682Z,95.51
2018-12-09T09:48:07.899Z,95.17
2018-12-09T09:50:37.307Z,95.53
2018-12-09T09:53:07.407Z,96.29
2018-12-09T09:55:36.918Z,96.56
2018-12-09T09:58:07.406Z,98.00
2018-12-09T10:00:37.559Z,99.73
2018-12-09T10:03:07.191Z,100.00
2018-12-09T10:05:36.878Z,100.00
2018-12-09T10:08:06.732Z,100.00
2018-12-09T10:10:36.361Z,100.00
2018-12-09T10:13:07.051Z,100.00
2018-12-09T10:15:36.351Z,100.00
2018-12-09T10:18:06.034Z,100.00
2018-12-09T10:20:35.335Z,100.00
2018-12-09T10:23:04.831Z,100.00
2018-12-09T10:25:34.308Z,100.00
2018-12-09T10:28:04.018Z,100.00
2018-12-09T10:30:33.552Z,100.00
2018-12-09T10:33:03.358Z,100.00
2018-12-09T10:35:33.829Z,100.00
2018-12-09T10:38:04.054Z,100.00
2018-12-09T10:40:35.137Z,100.00
2018-12-09T10:43:04.503Z,100.00
2018-12-09T10:45:34.709Z,100.00
2018-12-09T10:48:05.511Z,100.00
2018-12-09T10:50:36.038Z,100.00
2018-12-09T10:53:05.440Z,100.00
2018-12-09T10:55:36.039Z,100.00
2018-12-09T10:58:05.507Z,100.00
2018-12-09T11:00:40.254Z,100.00
2018-12-09T11:03:10.624Z,100.00
2018-12-09T11:05:39.904Z,100.00
2018-12-09T11:08:09.203Z,100.00
2018-12-09T11:10:39.135Z,100.00
2018-12-09T11:13:09.485Z,100.00
2018-12-09T11:15:39.148Z,100.00
2018-12-09T11:18:10.163Z,100.00
2018-12-09T11:20:42.914Z,100.00
2018-12-09T11:23:12.387Z,100.00
2018-12-09T11:25:41.826Z,100.00
2018-12-09T11:28:11.073Z,100.00
2018-12-09T11:30:40.854Z,100.00
2018-12-09T11:33:10.911Z,100.00
2018-12-09T11:35:40.144Z,100.00
2018-12-09T11:38:09.811Z,100.00
2018-12-09T11:40:39.761Z,100.00
2018-12-09T11:43:11.626Z,100.00
2018-12-09T11:45:41.115Z,100.00
2018-12-09T11:48:10.354Z,100.00
2018-12-09T11:50:39.996Z,100.00
2018-12-09T11:53:09.477Z,100.00
2018-12-09T11:55:38.773Z,100.00
2018-12-09T11:58:08.969Z,100.00
2018-12-09T12:00:38.573Z,100.00
2018-12-09T12:03:08.244Z,100.00
2018-12-09T12:05:37.829Z,100.00
2018-12-09T12:08:07.980Z,100.00
2018-12-09T12:10:38.455Z,100.00
2018-12-09T12:13:07.739Z,100.00
2018-12-09T12:15:37.680Z,100.00
2018-12-09T12:18:07.105Z,100.00
2018-12-09T12:20:36.981Z,100.00
2018-12-09T12:23:07.256Z,100.00
2018-12-09T12:25:37.320Z,100.00
2018-12-09T12:28:07.052Z,100.00
2018-12-09T12:30:37.209Z,100.00
2018-12-09T12:33:07.209Z,100.00
2018-12-09T12:35:36.798Z,100.00
2018-12-09T12:38:06.284Z,100.00
2018-12-09T12:40:35.973Z,100.00
2018-12-09T12:43:05.403Z,100.00
2018-12-09T12:45:34.962Z,100.00
2018-12-09T12:48:04.429Z,100.00
2018-12-09T12:50:33.901Z,100.00
2018-12-09T12:53:03.398Z,100.00
2018-12-09T12:55:32.638Z,100.00
2018-12-09T12:58:02.019Z,100.00
2018-12-09T13:00:31.444Z,100.00
2018-12-09T13:03:01.225Z,100.00
2018-12-09T13:05:31.551Z,100.00
2018-12-09T13:08:00.956Z,100.00
2018-12-09T13:10:30.613Z,100.00
2018-12-09T13:12:59.977Z,100.00
2018-12-09T13:15:29.701Z,100.00
2018-12-09T13:17:59.378Z,100.00
2018-12-09T13:20:28.921Z,100.00
2018-12-09T13:22:58.414Z,100.00
2018-12-09T13:25:27.886Z,100.00
2018-12-09T13:27:57.353Z,100.00
2018-12-09T13:30:26.727Z,100.00
2018-12-09T13:32:56.061Z,100.00
2018-12-09T13:35:26.037Z,100.00
2018-12-09T13:37:55.524Z,100.00
2018-12-09T13:40:25.166Z,100.00
2018-12-09T13:42:55.217Z,100.00
2018-12-09T13:45:24.868Z,100.00
2018-12-09T13:47:54.357Z,100.00
2018-12-09T13:50:24.524Z,100.00
2018-12-09T13:52:54.611Z,100.00
2018-12-09T13:55:23.999Z,100.00
2018-12-09T13:57:53.382Z,100.00
2018-12-09T14:00:23.520Z,100.00
2018-12-09T14:02:52.828Z,100.00
2018-12-09T14:05:22.154Z,100.00
2018-12-09T14:07:51.504Z,100.00
2018-12-09T14:10:20.900Z,100.00
2018-12-09T14:12:50.246Z,100.00
2018-12-09T14:15:35.109Z,100.00
2018-12-09T14:18:07.155Z,100.00
2018-12-09T14:20:36.622Z,100.00
2018-12-09T14:23:06.179Z,100.00
2018-12-09T14:25:35.718Z,100.00
2018-12-09T14:28:05.225Z,100.00
2018-12-09T14:30:34.995Z,100.00
2018-12-09T14:33:04.449Z,100.00
2018-12-09T14:35:34.673Z,100.00
2018-12-09T14:38:04.109Z,100.00
2018-12-09T14:40:33.597Z,100.00
2018-12-09T14:43:03.090Z,100.00
2018-12-09T14:45:32.491Z,100.00
2018-12-09T14:48:01.715Z,100.00
2018-12-09T14:50:31.088Z,100.00
2018-12-09T14:53:00.407Z,100.00
2018-12-09T14:55:29.847Z,100.00
2018-12-09T14:57:59.569Z,100.00
2018-12-09T15:00:28.937Z,100.00
2018-12-09T15:02:58.545Z,100.00
2018-12-09T15:05:28.082Z,100.00
2018-12-09T15:07:57.625Z,100.00
2018-12-09T15:10:28.515Z,100.00
2018-12-09T15:12:58.309Z,100.00
2018-12-09T15:15:27.643Z,100.00
2018-12-09T15:17:57.082Z,100.00
2018-12-09T15:20:26.514Z,100.00
2018-12-09T15:22:56.541Z,100.00
2018-12-09T15:25:25.754Z,100.00
2018-12-09T15:27:55.075Z,100.00
2018-12-09T15:30:24.468Z,100.00
2018-12-09T15:32:53.993Z,100.00
2018-12-09T15:35:23.643Z,100.00
2018-12-09T15:37:53.221Z,100.00
2018-12-09T15:40:22.487Z,100.00
2018-12-09T15:42:51.808Z,100.00
2018-12-09T15:45:21.278Z,100.00
2018-12-09T15:47:50.546Z,100.00
2018-12-09T15:50:21.534Z,100.00
2018-12-09T15:52:50.802Z,100.00
2018-12-09T15:55:20.065Z,100.00
2018-12-09T15:57:50.038Z,100.00
2018-12-09T16:00:19.550Z,100.00
2018-12-09T16:02:49.520Z,100.00
2018-12-09T16:05:19.973Z,100.00
2018-12-09T16:07:49.522Z,100.00
2018-12-09T16:10:18.968Z,100.00
2018-12-09T16:12:48.472Z,100.00
2018-12-09T16:15:17.899Z,100.00
2018-12-09T16:17:47.240Z,100.00
2018-12-09T16:20:16.909Z,100.00
2018-12-09T16:22:46.507Z,100.00
2018-12-09T16:25:16.513Z,100.00
2018-12-09T16:27:47.140Z,100.00
2018-12-09T16:30:17.445Z,100.00
2018-12-09T16:32:46.954Z,100.00
2018-12-09T16:35:16.461Z,100.00
2018-12-09T16:37:45.866Z,100.00
2018-12-09T16:40:15.494Z,100.00
2018-12-09T16:42:45.990Z,100.00
2018-12-09T16:45:15.362Z,100.00
2018-12-09T16:47:44.722Z,100.00
2018-12-09T16:50:14.337Z,100.00
2018-12-09T16:52:44.020Z,100.00
2018-12-09T16:55:13.933Z,100.00
2018-12-09T16:57:43.684Z,100.00
2018-12-09T17:00:19.895Z,100.00
2018-12-09T17:02:50.028Z,100.00
2018-12-09T17:05:19.390Z,100.00
2018-12-09T17:07:49.705Z,100.00
2018-12-09T17:10:19.099Z,100.00
2018-12-09T17:12:48.549Z,100.00
2018-12-09T17:15:21.791Z,100.00
2018-12-09T17:17:52.396Z,100.00
2018-12-09T17:20:23.929Z,100.00
2018-12-09T17:22:53.440Z,100.00
2018-12-09T17:25:22.897Z,100.00
2018-12-09T17:27:52.207Z,100.00
2018-12-09T17:30:22.368Z,100.00
2018-12-09T17:32:51.967Z,100.00
2018-12-09T17:35:21.616Z,100.00
2018-12-09T17:37:51.618Z,100.00
2018-12-09T17:40:21.084Z,100.00
2018-12-09T17:42:50.621Z,99.96
2018-12-09T17:45:20.242Z,100.00
2018-12-09T17:47:50.179Z,100.00
2018-12-09T17:50:19.734Z,100.00
2018-12-09T17:52:49.404Z,100.00
2018-12-09T17:55:19.199Z,100.00
2018-12-09T17:57:49.100Z,100.00
2018-12-09T18:00:19.540Z,100.00
2018-12-09T18:02:49.024Z,100.00
2018-12-09T18:05:18.563Z,100.00
2018-12-09T18:07:47.958Z,100.00
2018-12-09T18:10:17.365Z,100.00
2018-12-09T18:12:48.142Z,100.00
2018-12-09T18:15:21.716Z,100.00
2018-12-09T18:17:51.327Z,100.00
2018-12-09T18:20:21.598Z,100.00
2018-12-09T18:22:51.010Z,100.00
2018-12-09T18:25:22.478Z,100.00
2018-12-09T18:30:25.851Z,100.00
2018-12-09T18:32:56.658Z,100.00
2018-12-09T18:35:26.695Z,100.00
2018-12-09T18:37:57.475Z,100.00
2018-12-09T18:40:26.883Z,98.62
2018-12-09T18:42:57.481Z,99.14
2018-12-09T18:45:26.968Z,97.61
2018-12-09T18:47:56.418Z,99.33
2018-12-09T18:50:25.819Z,96.83
2018-12-09T18:52:57.988Z,95.96
2018-12-09T18:55:27.403Z,96.45
2018-12-09T18:57:57.298Z,96.61
2018-12-09T19:00:27.125Z,98.20
2018-12-09T19:02:56.590Z,98.28
2018-12-09T19:05:26.087Z,99.74
2018-12-09T19:07:55.896Z,99.43
2018-12-09T19:10:25.675Z,100.00
2018-12-09T19:12:58.190Z,99.34
2018-12-09T19:15:28.613Z,100.00
2018-12-09T19:18:02.220Z,100.00
2018-12-09T19:20:31.505Z,100.00
2018-12-09T19:23:01.334Z,100.00
2018-12-09T19:25:30.722Z,100.00
2018-12-09T19:28:01.281Z,100.00
2018-12-09T19:30:30.790Z,100.00
2018-12-09T19:33:01.305Z,100.00
2018-12-09T19:35:31.132Z,100.00
2018-12-09T19:38:00.444Z,100.00
2018-12-09T19:40:29.800Z,100.00
2018-12-09T19:42:59.084Z,100.00
2018-12-09T19:45:28.521Z,100.00
2018-12-09T19:47:57.889Z,100.00
2018-12-09T19:50:44.862Z,100.00
2018-12-09T19:53:16.936Z,100.00
2018-12-09T19:55:46.401Z,100.00
2018-12-09T19:58:17.303Z,100.00
2018-12-09T20:00:46.600Z,100.00
2018-12-09T20:03:17.186Z,100.00
2018-12-09T20:05:46.924Z,100.00
2018-12-09T20:08:16.755Z,100.00
2018-12-09T20:10:46.859Z,100.00
2018-12-09T20:13:18.598Z,100.00
2018-12-09T20:15:49.099Z,100.00
2018-12-09T20:18:19.011Z,100.00
2018-12-09T20:20:49.531Z,100.00
2018-12-09T20:23:19.497Z,100.00
2018-12-09T20:25:53.524Z,100.00
2018-12-09T20:28:24.760Z,100.00
2018-12-09T20:30:58.546Z,100.00
2018-12-09T20:33:31.723Z,100.00
2018-12-09T20:36:03.325Z,100.00
2018-12-09T20:38:32.673Z,100.00
2018-12-09T20:41:03.392Z,100.00
2018-12-09T20:43:34.743Z,100.00
2018-12-09T20:46:04.275Z,100.00
2018-12-09T20:48:33.697Z,100.00
2018-12-09T20:51:04.104Z,98.61
2018-12-09T20:53:34.579Z,98.54
2018-12-09T20:56:04.931Z,98.44
2018-12-09T20:58:36.212Z,97.41
2018-12-09T21:01:06.431Z,98.39
2018-12-09T21:03:35.919Z,98.04
2018-12-09T21:06:06.482Z,98.06
2018-12-09T21:08:37.163Z,98.88
2018-12-09T21:11:07.410Z,99.26
2018-12-09T21:13:38.788Z,100.00
2018-12-09T21:16:09.082Z,100.00
2018-12-09T21:18:38.314Z,100.00
2018-12-09T21:21:08.386Z,100.00
2018-12-09T21:23:37.830Z,100.00
2018-12-09T21:26:07.283Z,100.00
2018-12-09T21:28:39.028Z,100.00
2018-12-09T21:31:09.136Z,100.00
2018-12-09T21:33:39.433Z,100.00
2018-12-09T21:36:09.091Z,100.00
2018-12-09T21:38:38.529Z,100.00
2018-12-09T21:41:08.976Z,100.00
2018-12-09T21:43:38.414Z,100.00
2018-12-09T21:46:07.927Z,100.00
2018-12-09T21:48:38.273Z,100.00
2018-12-09T21:51:08.720Z,100.00
2018-12-09T21:53:38.899Z,100.00
2018-12-09T21:56:09.427Z,100.00
2018-12-09T21:58:39.361Z,100.00
2018-12-09T22:01:11.433Z,100.00
2018-12-09T22:03:41.629Z,100.00
2018-12-09T22:06:11.634Z,100.00
2018-12-09T22:08:40.858Z,100.00
2018-12-09T22:11:10.181Z,100.00
2018-12-09T22:13:39.455Z,100.00
2018-12-09T22:16:09.516Z,100.00
2018-12-09T22:18:40.777Z,100.00
2018-12-09T22:21:10.608Z,100.00
2018-12-09T22:23:39.945Z,100.00
2018-12-09T22:26:09.319Z,100.00
2018-12-09T22:28:38.741Z,100.00
2018-12-09T22:31:08.994Z,100.00
2018-12-09T22:33:38.640Z,100.00
2018-12-09T22:36:07.945Z,100.00
2018-12-09T22:38:37.331Z,100.00
2018-12-09T22:41:07.477Z,100.00
2018-12-09T22:43:37.798Z,100.00
2018-12-09T22:46:07.164Z,100.00
2018-12-09T22:48:36.606Z,100.00
2018-12-09T22:51:06.234Z,100.00
2018-12-09T22:53:35.702Z,100.00
2018-12-09T22:56:05.308Z,100.00
2018-12-09T22:58:34.673Z,100.00
2018-12-09T23:01:09.860Z,100.00
2018-12-09T23:03:39.158Z,100.00
2018-12-09T23:06:09.244Z,100.00
2018-12-09T23:08:38.715Z,100.00
2018-12-09T23:11:08.695Z,100.00
2018-12-09T23:13:45.182Z,100.00
2018-12-09T23:16:14.771Z,100.00
2018-12-09T23:18:44.424Z,100.00
2018-12-09T23:21:13.770Z,100.00
2018-12-09T23:23:43.073Z,100.00
2018-12-09T23:26:12.406Z,100.00
2018-12-09T23:28:42.452Z,100.00
2018-12-09T23:31:11.848Z,100.00
2018-12-09T23:33:41.129Z,100.00
2018-12-09T23:36:10.744Z,100.00
2018-12-09T23:38:40.830Z,100.00
2018-12-09T23:41:10.447Z,100.00
2018-12-09T23:43:39.789Z,99.93
2018-12-09T23:46:09.597Z,98.60
2018-12-09T23:48:38.856Z,98.29
2018-12-09T23:51:08.838Z,98.58
2018-12-09T23:53:43.531Z,98.69
2018-12-09T23:56:15.946Z,98.58
2018-12-09T23:58:49.154Z,98.58
